Time;durP1;ratioP1;P1;durP2;ratioP2;P2;SDS_P1;SDS_P2;PMS_P1;PMS_P2;Temp;Humidity;BMP_temperature;BMP_pressure;BME280_temperature;BME280_humidity;BME280_pressure;Samples;Min_cycle;Max_cycle;Signal;HPM_P1;HPM_P2
2022/08/27 00:01:53;;;;;;;;;2.00;2.00;;;;;24.24;45.43;101206.22;5074377;27;45383;-67
2022/08/27 00:04:18;;;;;;;;;4.00;3.00;;;;;24.15;45.25;101197.78;5065729;28;45466;-66
2022/08/27 00:06:46;;;;;;;;;2.00;2.00;;;;;24.21;45.74;101213.53;5060828;28;45390;-66
2022/08/27 00:09:12;;;;;;;;;2.00;2.00;;;;;24.13;45.20;101200.50;5071341;28;45544;-65
2022/08/27 00:11:38;;;;;;;;;2.00;2.00;;;;;24.19;45.27;101205.56;5072796;28;45504;-65
2022/08/27 00:14:04;;;;;;;;;2.33;2.00;;;;;24.09;45.67;101190.91;5070699;27;45534;-66
2022/08/27 00:16:29;;;;;;;;;2.00;2.00;;;;;24.18;45.53;101217.25;5076557;28;45575;-64
2022/08/27 00:18:55;;;;;;;;;2.67;2.00;;;;;24.13;45.44;101203.19;5073072;28;45605;-69
2022/08/27 00:21:22;;;;;;;;;4.67;3.00;;;;;24.08;45.59;101187.38;5070413;28;45332;-72
2022/08/27 00:23:48;;;;;;;;;1.33;1.33;;;;;24.11;45.81;101205.09;5073877;27;45527;-71
2022/08/27 00:26:16;;;;;;;;;1.67;1.33;;;;;24.01;45.37;101185.03;5053096;28;47037;-65
2022/08/27 00:28:46;;;;;;;;;1.00;1.00;;;;;24.13;45.63;101214.78;5066382;27;45563;-65
2022/08/27 00:31:12;;;;;;;;;2.00;2.00;;;;;24.13;45.58;101216.56;5046812;28;45482;-70
2022/08/27 00:33:38;;;;;;;;;3.00;3.00;;;;;24.09;45.70;101199.78;5057404;28;45524;-73
2022/08/27 00:36:04;;;;;;;;;2.33;1.67;;;;;24.05;45.49;101200.00;5051656;28;46693;-65
2022/08/27 00:38:30;;;;;;;;;2.00;2.00;;;;;24.11;45.95;101213.13;5054080;28;45446;-66
2022/08/27 00:40:55;;;;;;;;;5.00;1.33;;;;;24.08;45.57;101219.47;5057086;28;45502;-69
2022/08/27 00:43:30;;;;;;;;;2.67;2.00;;;;;24.06;45.90;101217.78;5074649;27;45520;-67
2022/08/27 00:46:10;;;;;;;;;4.00;2.00;;;;;24.04;45.75;101215.19;5075855;28;46339;-66
2022/08/27 00:48:36;;;;;;;;;1.33;1.33;;;;;24.07;45.81;101219.53;5076435;27;45469;-70
2022/08/27 00:51:04;;;;;;;;;2.00;2.00;;;;;23.97;45.97;101199.53;5074723;28;45347;-65
2022/08/27 00:53:34;;;;;;;;;2.00;2.00;;;;;24.01;45.74;101206.44;5068810;28;46103;-67
2022/08/27 00:56:34;;;;;;;;;2.67;2.67;;;;;24.02;45.65;101211.72;5078590;27;45331;-66
2022/08/27 00:59:01;;;;;;;;;2.00;2.00;;;;;24.02;45.59;101198.34;5061125;28;45358;-69
2022/08/27 01:01:31;;;;;;;;;2.00;2.00;;;;;23.99;45.56;101198.50;5077720;27;45528;-70
2022/08/27 01:04:04;;;;;;;;;2.00;2.00;;;;;23.97;46.10;101197.69;5059713;28;45546;-66
2022/08/27 01:06:35;;;;;;;;;3.00;2.00;;;;;23.92;46.02;101195.25;5063862;28;46755;-68
2022/08/27 01:09:08;;;;;;;;;2.00;2.00;;;;;23.81;46.05;101185.97;5069759;27;45488;-69
2022/08/27 01:11:33;;;;;;;;;2.67;2.33;;;;;23.90;46.05;101202.47;5055340;28;45740;-71
2022/08/27 01:13:59;;;;;;;;;2.00;2.00;;;;;23.82;46.97;101201.06;5070446;27;45834;-69
2022/08/27 01:16:31;;;;;;;;;6.33;3.33;;;;;23.82;46.85;101217.97;5055221;28;45401;-68
2022/08/27 01:18:59;;;;;;;;;3.67;3.00;;;;;23.67;47.39;101210.63;5067157;27;45429;-68
2022/08/27 01:21:37;;;;;;;;;3.00;3.00;;;;;23.58;47.93;101216.41;5071078;28;45441;-73
2022/08/27 01:24:25;;;;;;;;;3.00;3.00;;;;;23.54;47.61;101217.47;5048624;28;45421;-68
2022/08/27 01:26:51;;;;;;;;;4.00;4.00;;;;;23.38;47.71;101210.13;5056857;28;46315;-74
2022/08/27 01:29:17;;;;;;;;;5.33;4.00;;;;;23.46;47.51;101213.31;5071207;27;45492;-77
2022/08/27 01:31:43;;;;;;;;;2.67;2.67;;;;;23.47;47.25;101204.38;5071114;27;45429;-76
2022/08/27 01:34:09;;;;;;;;;4.00;2.33;;;;;23.43;47.28;101184.06;5067638;28;45564;-67
2022/08/27 01:36:35;;;;;;;;;5.00;3.00;;;;;23.52;47.64;101206.84;5069359;28;45445;-66
2022/08/27 01:39:00;;;;;;;;;3.67;3.67;;;;;23.50;47.67;101214.06;5055221;28;45492;-69
2022/08/27 01:41:26;;;;;;;;;3.00;3.00;;;;;23.39;48.21;101211.84;5058232;28;45400;-68
2022/08/27 01:43:52;;;;;;;;;3.00;3.00;;;;;23.46;47.45;101201.75;5067449;28;45410;-72
2022/08/27 01:46:24;;;;;;;;;3.67;2.00;;;;;23.50;47.35;101198.03;5063619;28;46270;-68
2022/08/27 01:48:50;;;;;;;;;2.00;2.00;;;;;23.53;47.21;101200.56;5062484;28;45946;-66
2022/08/27 01:51:16;;;;;;;;;3.00;3.00;;;;;23.57;47.44;101194.16;5060758;28;45391;-65
2022/08/27 01:53:42;;;;;;;;;2.00;2.00;;;;;23.49;47.05;101174.88;5066088;28;45622;-65
2022/08/27 01:56:07;;;;;;;;;2.33;2.33;;;;;23.57;47.20;101188.78;5058535;27;45508;-67
2022/08/27 01:58:33;;;;;;;;;3.00;1.00;;;;;23.37;47.91;101148.72;5065408;27;45646;-68
2022/08/27 02:01:07;;;;;;;;;2.00;2.00;;;;;23.59;47.23;101183.38;5060357;28;45367;-66
2022/08/27 02:03:35;;;;;;;;;2.67;1.33;;;;;23.60;47.23;101194.00;5051026;28;45489;-70
2022/08/27 02:06:05;;;;;;;;;2.00;2.00;;;;;23.63;47.10;101187.63;5066874;28;46197;-69
2022/08/27 02:08:31;;;;;;;;;2.00;2.00;;;;;23.64;47.16;101194.75;5067470;28;45376;-68
2022/08/27 02:10:57;;;;;;;;;2.00;2.00;;;;;23.49;46.98;101170.44;5067697;28;45461;-66
2022/08/27 02:13:23;;;;;;;;;2.00;2.00;;;;;23.36;47.99;101179.94;5077009;27;45645;-69
2022/08/27 02:15:48;;;;;;;;;2.00;2.00;;;;;23.31;47.93;101183.75;5063167;28;46092;-66
2022/08/27 02:18:15;;;;;;;;;5.00;2.00;;;;;23.07;48.55;101159.84;5065845;28;45341;-67
2022/08/27 02:20:43;;;;;;;;;2.00;2.00;;;;;23.26;48.12;101198.16;5070311;28;45391;-65
2022/08/27 02:23:09;;;;;;;;;1.00;1.00;;;;;23.23;47.91;101179.59;5067753;27;45857;-66
2022/08/27 02:25:35;;;;;;;;;1.00;1.00;;;;;23.34;48.38;101203.19;5058404;28;45561;-66
2022/08/27 02:28:02;;;;;;;;;1.00;1.00;;;;;23.24;48.24;101192.03;5065428;27;45481;-66
2022/08/27 02:30:33;;;;;;;;;2.33;1.00;;;;;23.25;48.49;101191.09;5070173;27;45362;-70
2022/08/27 02:33:01;;;;;;;;;2.33;2.00;;;;;23.18;48.45;101191.41;5075654;27;45799;-66
2022/08/27 02:35:28;;;;;;;;;2.00;2.00;;;;;23.16;48.38;101191.50;5061960;28;45512;-66
2022/08/27 02:37:55;;;;;;;;;2.00;2.00;;;;;23.09;48.16;101171.31;5065757;27;45597;-66
2022/08/27 02:40:22;;;;;;;;;3.00;3.00;;;;;23.19;48.40;101196.69;5039152;28;45457;-65
2022/08/27 02:42:48;;;;;;;;;2.67;2.67;;;;;23.10;48.62;101197.09;5063695;28;45541;-66
2022/08/27 02:45:15;;;;;;;;;2.00;2.00;;;;;22.93;48.77;101178.22;5067888;27;46034;-65
2022/08/27 02:47:42;;;;;;;;;2.00;2.00;;;;;23.02;48.75;101193.91;5073414;27;45563;-65
2022/08/27 02:50:08;;;;;;;;;4.00;3.00;;;;;22.98;48.95;101186.91;5072394;27;45543;-68
2022/08/27 02:52:34;;;;;;;;;5.00;3.00;;;;;22.90;48.95;101184.56;5056808;28;45554;-66
2022/08/27 02:55:04;;;;;;;;;2.00;2.00;;;;;22.79;49.21;101168.97;5073770;27;45796;-66
2022/08/27 02:57:30;;;;;;;;;2.00;2.00;;;;;22.89;48.96;101171.28;5064096;28;45491;-66
2022/08/27 02:59:56;;;;;;;;;2.00;2.00;;;;;22.76;48.83;101155.78;5068266;28;45523;-64
2022/08/27 03:02:21;;;;;;;;;2.00;1.00;;;;;22.96;48.63;101183.44;5075423;27;45525;-66
2022/08/27 03:04:47;;;;;;;;;1.00;1.00;;;;;23.03;48.64;101182.25;5072481;28;45784;-70
2022/08/27 03:07:13;;;;;;;;;2.00;1.00;;;;;22.88;48.67;101167.75;5079581;27;45345;-66
2022/08/27 03:09:39;;;;;;;;;2.00;1.00;;;;;23.04;48.71;101187.56;5079177;28;45534;-72
2022/08/27 03:12:04;;;;;;;;;1.33;1.33;;;;;23.05;48.66;101189.28;5076490;28;45429;-67
2022/08/27 03:14:30;;;;;;;;;2.00;2.00;;;;;22.96;48.67;101160.25;5065819;28;45414;-69
2022/08/27 03:18:16;;;;;;;;;1.00;1.00;;;;;23.05;48.59;101183.94;5073951;28;45402;-67
2022/08/27 03:19:42;;;;;;;;;3.00;0.00;;;;;22.88;48.89;101164.22;5076090;27;45314;-71
2022/08/27 03:22:07;;;;;;;;;2.00;2.00;;;;;22.87;48.95;101174.00;5075674;27;45480;-69
2022/08/27 03:24:33;;;;;;;;;2.00;2.00;;;;;22.81;49.01;101171.59;5075760;28;46067;-71
2022/08/27 03:26:59;;;;;;;;;2.00;2.00;;;;;22.87;48.95;101176.66;5073098;27;45289;-69
2022/08/27 03:29:33;;;;;;;;;1.00;1.00;;;;;22.79;48.62;101160.97;5037510;28;45708;-65
2022/08/27 03:31:59;;;;;;;;;2.00;2.00;;;;;22.83;49.14;101175.09;5069113;28;45750;-66
2022/08/27 03:34:34;;;;;;;;;2.67;2.00;;;;;22.69;49.26;101156.97;5062971;27;46139;-67
2022/08/27 03:37:00;;;;;;;;;2.00;2.00;;;;;22.38;49.56;101126.19;5068120;28;45358;-66
2022/08/27 03:39:25;;;;;;;;;1.33;1.33;;;;;22.35;49.88;101123.66;5072011;27;46210;-67
2022/08/27 03:41:51;;;;;;;;;2.00;2.00;;;;;22.55;50.10;101170.88;5076128;28;45645;-65
2022/08/27 03:44:17;;;;;;;;;1.00;1.00;;;;;22.41;50.36;101168.75;5074702;27;45422;-67
2022/08/27 03:46:42;;;;;;;;;2.00;2.00;;;;;22.21;50.70;101150.03;5051896;28;45735;-70
2022/08/27 03:49:15;;;;;;;;;1.33;1.33;;;;;22.24;50.80;101165.91;5070460;27;45421;-66
2022/08/27 03:51:40;;;;;;;;;2.00;2.00;;;;;22.10;50.87;101154.88;5074088;28;45613;-67
2022/08/27 03:54:06;;;;;;;;;2.00;2.00;;;;;22.15;51.18;101166.25;5067719;28;45512;-65
2022/08/27 03:56:38;;;;;;;;;1.00;1.00;;;;;22.12;50.96;101161.03;5068747;27;45430;-65
2022/08/27 03:59:04;;;;;;;;;2.00;2.00;;;;;22.18;50.42;101155.44;5067237;28;45566;-66
2022/08/27 04:01:30;;;;;;;;;2.00;2.00;;;;;22.21;50.62;101158.03;5075667;27;45496;-66
2022/08/27 04:03:56;;;;;;;;;1.00;1.00;;;;;22.27;50.57;101154.25;5079456;27;45524;-68
2022/08/27 04:06:21;;;;;;;;;3.00;2.00;;;;;22.15;50.20;101132.44;5077338;28;45429;-69
2022/08/27 04:08:47;;;;;;;;;2.00;1.00;;;;;22.22;49.95;101127.75;5061914;28;45467;-71
2022/08/27 04:11:13;;;;;;;;;1.00;1.00;;;;;22.46;49.88;101165.91;5070817;28;45434;-67
2022/08/27 04:13:39;;;;;;;;;1.00;1.00;;;;;22.23;50.18;101151.72;5072559;28;45957;-74
2022/08/27 04:16:06;;;;;;;;;3.00;3.00;;;;;22.19;50.77;101162.53;5062213;28;45448;-68
2022/08/27 04:18:32;;;;;;;;;4.00;2.67;;;;;22.01;51.38;101146.31;5057216;28;45471;-75
2022/08/27 04:21:07;;;;;;;;;1.67;1.67;;;;;22.05;51.27;101152.41;5075251;28;45438;-70
2022/08/27 04:23:33;;;;;;;;;2.00;2.00;;;;;22.03;51.38;101157.78;5049481;28;48112;-70
2022/08/27 04:25:59;;;;;;;;;2.33;2.00;;;;;22.03;50.82;101139.13;5074989;28;45753;-67
2022/08/27 04:28:25;;;;;;;;;1.00;1.00;;;;;22.14;50.48;101135.16;5067958;27;45251;-70
2022/08/27 04:30:50;;;;;;;;;1.33;1.33;;;;;22.29;50.89;101152.41;5061653;28;45979;-71
2022/08/27 04:33:19;;;;;;;;;3.00;3.00;;;;;22.23;50.80;101148.16;5066253;27;46198;-65
2022/08/27 04:35:45;;;;;;;;;2.00;2.00;;;;;22.20;50.74;101154.47;5065589;27;45559;-69
2022/08/27 04:38:10;;;;;;;;;2.00;2.00;;;;;22.26;50.44;101153.38;5062021;28;45552;-66
2022/08/27 04:43:21;;;;;;;;;2.00;2.00;;;;;22.30;50.23;101146.13;5046024;28;45909;-76
2022/08/27 04:45:47;;;;;;;;;1.67;1.67;;;;;22.30;50.10;101138.97;5059966;28;45501;-79
2022/08/27 04:48:16;;;;;;;;;2.67;1.67;;;;;22.42;49.87;101154.50;5060478;28;45395;-67
2022/08/27 04:50:43;;;;;;;;;2.33;2.33;;;;;22.40;49.74;101155.47;5061134;27;45562;-65
2022/08/27 04:53:10;;;;;;;;;1.00;1.00;;;;;22.49;49.68;101162.25;5066088;28;45805;-66
2022/08/27 04:55:44;;;;;;;;;1.00;1.00;;;;;22.47;49.54;101145.41;5072645;27;45441;-69
2022/08/27 04:58:10;;;;;;;;;1.00;1.00;;;;;22.53;49.63;101151.38;5068535;27;45533;-68
2022/08/27 05:00:45;;;;;;;;;1.67;1.67;;;;;22.56;49.57;101161.06;5059680;27;45513;-69
2022/08/27 05:03:11;;;;;;;;;1.67;1.67;;;;;22.56;49.55;101155.72;5057431;28;46122;-67
2022/08/27 05:05:37;;;;;;;;;1.00;1.00;;;;;22.58;49.53;101148.53;5065624;28;45548;-67
2022/08/27 05:08:10;;;;;;;;;2.00;1.67;;;;;22.43;49.23;101126.00;5078292;28;45395;-66
2022/08/27 05:10:45;;;;;;;;;2.00;2.00;;;;;22.63;50.25;101154.53;5041918;28;45489;-71
2022/08/27 05:13:10;;;;;;;;;4.00;2.00;;;;;22.56;49.83;101137.03;5075524;28;45399;-66
2022/08/27 05:15:38;;;;;;;;;2.00;2.00;;;;;22.73;49.26;101153.25;5062475;28;45505;-66
2022/08/27 05:18:05;;;;;;;;;3.33;2.00;;;;;22.70;49.60;101144.47;5075926;28;45292;-67
2022/08/27 05:20:33;;;;;;;;;2.00;2.00;;;;;22.75;49.19;101158.50;5064114;27;47496;-67
2022/08/27 05:22:59;;;;;;;;;3.33;2.00;;;;;22.80;49.14;101165.41;5074343;28;46064;-67
2022/08/27 05:25:25;;;;;;;;;1.00;1.00;;;;;22.86;48.99;101172.28;5067053;27;45448;-67
2022/08/27 05:27:51;;;;;;;;;1.33;1.33;;;;;22.90;49.08;101179.22;5065203;28;45355;-67
2022/08/27 05:30:18;;;;;;;;;1.00;1.00;;;;;22.94;48.38;101182.63;5063267;28;45455;-66
2022/08/27 05:32:43;;;;;;;;;1.67;1.67;;;;;22.66;48.89;101133.06;5079123;27;45449;-67
2022/08/27 05:35:10;;;;;;;;;2.00;2.00;;;;;22.95;48.76;101189.72;5067496;28;45526;-67
2022/08/27 05:37:36;;;;;;;;;4.67;3.00;;;;;22.75;49.42;101185.19;5078195;28;45496;-67
2022/08/27 05:40:04;;;;;;;;;2.00;2.00;;;;;22.57;49.53;101181.50;5066564;27;45317;-65
2022/08/27 05:42:33;;;;;;;;;4.00;2.00;;;;;22.73;49.19;101184.38;5070908;28;47119;-67
2022/08/27 05:44:58;;;;;;;;;2.67;2.67;;;;;22.79;49.01;101184.16;5066275;28;45352;-68
2022/08/27 05:47:26;;;;;;;;;1.33;1.00;;;;;22.67;49.33;101177.50;5062046;28;45521;-66
2022/08/27 05:49:53;;;;;;;;;2.67;2.67;;;;;22.76;49.05;101182.47;5061691;28;45588;-67
2022/08/27 05:52:20;;;;;;;;;3.67;2.00;;;;;22.61;48.87;101141.28;5069894;27;47396;-67
2022/08/27 05:54:45;;;;;;;;;3.00;3.00;;;;;22.76;49.20;101195.81;5065398;28;45362;-69
2022/08/27 05:57:11;;;;;;;;;1.33;1.33;;;;;22.78;48.84;101164.59;5074407;28;45684;-66
2022/08/27 06:02:22;;;;;;;;;2.33;2.00;;;;;23.05;48.11;101183.94;5071320;28;45409;-67
2022/08/27 06:04:47;;;;;;;;;3.00;3.00;;;;;23.18;48.09;101194.09;5078552;27;45280;-68
2022/08/27 06:07:14;;;;;;;;;6.67;5.33;;;;;23.13;47.94;101159.56;5076073;28;45304;-72
2022/08/27 06:09:40;;;;;;;;;3.00;3.00;;;;;23.36;47.50;101182.59;5071211;27;45437;-66
2022/08/27 06:12:06;;;;;;;;;3.00;3.00;;;;;23.52;46.99;101187.28;5070431;27;45374;-73
2022/08/27 06:14:34;;;;;;;;;3.33;3.00;;;;;23.56;47.31;101179.03;5062292;28;45396;-68
2022/08/27 06:17:00;;;;;;;;;4.00;2.33;;;;;23.60;46.96;101163.72;5063302;28;45457;-67
2022/08/27 06:19:25;;;;;;;;;5.00;5.00;;;;;23.74;46.57;101181.84;5063725;28;45794;-71
2022/08/27 06:22:01;;;;;;;;;3.67;3.67;;;;;23.88;46.66;101198.13;5068310;28;45480;-67
2022/08/27 06:24:27;;;;;;;;;1.00;1.00;;;;;23.54;46.31;101119.44;5060915;28;45634;-66
2022/08/27 06:26:53;;;;;;;;;4.00;3.67;;;;;23.97;45.71;101186.13;5063261;28;46730;-66
2022/08/27 06:29:19;;;;;;;;;3.00;3.00;;;;;23.99;46.13;101185.13;5077022;28;45272;-67
2022/08/27 06:31:45;;;;;;;;;3.33;3.00;;;;;24.14;45.96;101183.53;5063450;28;46476;-76
2022/08/27 06:34:10;;;;;;;;;3.67;3.67;;;;;24.12;45.55;101174.69;5056501;28;45560;-69
2022/08/27 06:36:42;;;;;;;;;4.00;3.00;;;;;24.25;45.56;101191.03;5061704;28;45436;-69
2022/08/27 06:39:14;;;;;;;;;3.33;3.00;;;;;24.10;45.55;101150.69;5065816;28;45358;-68
2022/08/27 06:41:41;;;;;;;;;4.00;2.00;;;;;24.23;45.08;101171.53;5054632;28;46083;-68
2022/08/27 06:44:07;;;;;;;;;4.67;4.67;;;;;24.10;45.12;101160.53;5053980;28;45502;-70
2022/08/27 06:46:35;;;;;;;;;4.00;3.33;;;;;24.11;45.64;101203.28;5056119;28;45358;-67
2022/08/27 06:49:00;;;;;;;;;5.00;3.33;;;;;23.81;46.03;101154.75;5060106;28;45361;-67
2022/08/27 06:51:31;;;;;;;;;2.67;2.67;;;;;24.14;45.09;101180.84;5064167;28;45544;-67
2022/08/27 06:54:02;;;;;;;;;2.33;2.33;;;;;24.31;44.96;101194.28;5059688;28;45320;-75
2022/08/27 06:56:30;;;;;;;;;2.33;1.33;;;;;24.39;44.83;101195.72;5059985;28;45402;-67
2022/08/27 06:58:58;;;;;;;;;3.67;3.00;;;;;24.52;44.55;101208.47;5068212;28;45343;-68
2022/08/27 07:01:33;;;;;;;;;2.67;2.67;;;;;24.15;45.04;101168.31;5072731;27;45763;-69
2022/08/27 07:04:01;;;;;;;;;3.33;2.33;;;;;24.03;45.60;101186.69;5067649;27;45465;-70
2022/08/27 07:06:30;;;;;;;;;3.33;3.33;;;;;24.33;44.89;101202.25;5072162;27;45353;-71
2022/08/27 07:08:57;;;;;;;;;4.00;4.00;;;;;24.36;44.93;101196.72;5070877;27;45363;-67
2022/08/27 07:11:23;;;;;;;;;5.00;5.00;;;;;24.52;44.60;101212.97;5065395;28;45937;-72
2022/08/27 07:13:50;;;;;;;;;6.67;4.33;;;;;24.48;45.07;101214.06;5072550;28;45507;-67
2022/08/27 07:16:19;;;;;;;;;3.33;3.33;;;;;24.51;44.43;101209.44;5073700;28;45620;-67
2022/08/27 07:18:45;;;;;;;;;2.33;2.33;;;;;24.41;44.72;101191.16;5073304;28;45703;-80
2022/08/27 07:21:11;;;;;;;;;6.00;5.00;;;;;24.36;44.98;101204.75;5070829;27;45686;-68
2022/08/27 07:23:39;;;;;;;;;5.00;4.00;;;;;24.47;44.68;101215.88;5054218;28;45456;-66
2022/08/27 07:26:10;;;;;;;;;4.33;4.33;;;;;24.37;45.06;101214.56;5071292;28;45349;-70
2022/08/27 07:28:39;;;;;;;;;5.33;3.00;;;;;24.55;45.09;101216.34;5063494;28;45588;-71
2022/08/27 07:31:07;;;;;;;;;7.00;5.33;;;;;24.60;44.94;101191.16;5061556;28;45946;-70
2022/08/27 07:33:34;;;;;;;;;4.67;4.67;;;;;24.58;44.30;101164.44;5072946;27;45522;-66
2022/08/27 07:36:01;;;;;;;;;3.67;3.67;;;;;24.98;43.92;101210.66;5066689;28;45403;-74
2022/08/27 07:38:27;;;;;;;;;3.67;3.67;;;;;24.98;44.25;101203.47;5072576;27;45534;-66
2022/08/27 07:40:52;;;;;;;;;3.33;3.00;;;;;25.11;43.79;101208.25;5056134;27;45841;-66
2022/08/27 07:46:04;;;;;;;;;3.00;3.00;;;;;25.29;43.64;101212.66;5052420;28;45530;-67
2022/08/27 07:48:32;;;;;;;;;3.00;3.00;;;;;25.23;43.46;101209.47;5055704;28;45436;-64
2022/08/27 07:50:58;;;;;;;;;4.67;4.33;;;;;25.31;43.29;101220.63;5054615;28;45560;-65
2022/08/27 07:53:24;;;;;;;;;2.00;2.00;;;;;25.35;43.39;101224.91;5061883;27;45810;-66
2022/08/27 07:55:50;;;;;;;;;3.00;3.00;;;;;25.42;42.72;101226.31;5057832;28;45419;-70
2022/08/27 07:58:15;;;;;;;;;4.33;3.67;;;;;25.35;43.19;101222.22;5055972;28;45465;-74
2022/08/27 08:00:42;;;;;;;;;2.00;2.00;;;;;25.35;43.44;101215.03;5055917;28;45470;-68
2022/08/27 08:03:15;;;;;;;;;4.00;3.00;;;;;25.43;42.66;101224.50;5056928;28;45371;-65
2022/08/27 08:05:42;;;;;;;;;3.00;3.00;;;;;25.43;42.71;101208.41;5054450;28;45501;-66
2022/08/27 08:08:08;;;;;;;;;6.00;4.00;;;;;25.56;42.29;101215.72;5058121;28;46951;-66
2022/08/27 08:10:38;;;;;;;;;6.00;4.00;;;;;25.66;42.31;101218.78;5055829;28;45323;-68
2022/08/27 08:13:05;;;;;;;;;4.00;3.33;;;;;25.71;42.24;101219.41;5059095;27;45726;-66
2022/08/27 08:15:31;;;;;;;;;3.00;3.00;;;;;25.74;42.16;101234.44;5056298;28;45367;-67
2022/08/27 08:17:57;;;;;;;;;3.00;3.00;;;;;25.72;42.09;101213.09;5056408;27;45496;-73
2022/08/27 08:20:22;;;;;;;;;5.67;4.00;;;;;25.85;42.10;101234.75;5061166;28;46275;-69
2022/08/27 08:22:51;;;;;;;;;3.75;3.50;;;;;25.80;41.99;101229.63;5069127;28;45407;-66
2022/08/27 08:25:17;;;;;;;;;4.33;4.33;;;;;25.93;42.06;101229.84;5070318;28;45331;-67
2022/08/27 08:27:43;;;;;;;;;5.00;5.00;;;;;26.04;41.93;101236.47;5075306;27;45402;-64
2022/08/27 08:30:10;;;;;;;;;3.50;3.00;;;;;25.99;42.21;101234.03;5067017;28;46638;-65
2022/08/27 08:32:35;;;;;;;;;7.67;6.67;;;;;26.01;41.43;101232.16;5061322;27;45556;-67
2022/08/27 08:35:01;;;;;;;;;6.00;6.00;;;;;25.66;41.76;101225.97;5065506;27;45393;-65
2022/08/27 08:37:27;;;;;;;;;7.00;7.00;;;;;25.73;41.24;101224.69;5070640;28;45660;-65
2022/08/27 08:39:53;;;;;;;;;5.33;4.67;;;;;25.45;42.23;101222.59;5065391;28;45509;-66
2022/08/27 08:42:34;;;;;;;;;5.67;5.00;;;;;25.61;41.92;101231.56;5069675;28;45457;-65
2022/08/27 08:45:03;;;;;;;;;3.00;3.00;;;;;25.75;41.62;101233.53;5059108;27;45494;-65
2022/08/27 08:47:47;;;;;;;;;4.00;4.00;;;;;25.62;41.26;101208.28;5074327;28;45701;-65
2022/08/27 08:50:25;;;;;;;;;6.00;5.67;;;;;25.64;41.77;101220.66;5042776;28;46865;-65
2022/08/27 08:53:05;;;;;;;;;4.00;3.67;;;;;25.44;41.40;101224.44;5070528;28;45388;-67
2022/08/27 08:55:47;;;;;;;;;4.00;4.00;;;;;25.49;41.32;101216.13;5065589;28;45487;-66
2022/08/27 08:58:38;;;;;;;;;5.67;5.67;;;;;25.54;41.18;101217.63;5063032;28;46843;-66
2022/08/27 09:01:06;;;;;;;;;3.67;3.33;;;;;25.41;41.04;101213.84;5055355;28;46317;-66
2022/08/27 09:03:35;;;;;;;;;4.00;4.00;;;;;25.33;41.02;101211.56;5051185;27;45484;-66
2022/08/27 09:06:06;;;;;;;;;5.00;4.00;;;;;25.22;40.93;101227.34;5070226;28;45469;-66
2022/08/27 09:08:39;;;;;;;;;3.33;3.33;;;;;25.15;40.98;101208.00;5056155;28;45556;-66
2022/08/27 09:11:32;;;;;;;;;5.00;3.00;;;;;25.35;40.94;101230.25;5068199;28;45509;-66
2022/08/27 09:14:02;;;;;;;;;4.67;3.67;;;;;25.31;40.48;101209.91;5067984;28;45549;-65
2022/08/27 09:16:27;;;;;;;;;3.00;3.00;;;;;25.48;40.66;101217.06;5065256;28;45902;-65
2022/08/27 09:18:54;;;;;;;;;2.67;2.67;;;;;25.65;40.54;101233.16;5074547;28;45493;-66
2022/08/27 09:21:41;;;;;;;;;3.00;3.00;;;;;25.80;39.54;101237.69;5061028;28;45350;-67
2022/08/27 09:24:26;;;;;;;;;3.00;3.00;;;;;25.81;40.11;101206.34;5065541;27;45948;-66
2022/08/27 09:26:53;;;;;;;;;3.00;3.00;;;;;26.07;39.55;101226.41;5066881;28;45330;-65
2022/08/27 09:29:18;;;;;;;;;5.00;3.33;;;;;26.11;39.41;101216.41;5063989;28;45653;-69
2022/08/27 09:31:55;;;;;;;;;2.33;2.33;;;;;26.21;39.47;101220.28;5063960;28;45671;-65
2022/08/27 09:34:29;;;;;;;;;8.00;4.67;;;;;26.37;38.84;101231.03;5062906;27;45602;-65
2022/08/27 09:36:59;;;;;;;;;6.00;5.00;;;;;26.48;38.47;101225.03;5063214;27;45401;-65
2022/08/27 09:39:28;;;;;;;;;5.33;4.00;;;;;26.36;38.10;101206.00;5068359;28;45746;-68
2022/08/27 09:41:54;;;;;;;;;4.00;4.00;;;;;26.55;38.29;101204.97;5074053;28;45955;-68
2022/08/27 09:44:21;;;;;;;;;3.00;3.00;;;;;26.80;38.09;101229.47;5061745;28;45514;-67
2022/08/27 09:46:56;;;;;;;;;5.50;4.00;;;;;26.80;37.36;101221.41;5073968;28;45492;-66
2022/08/27 09:49:23;;;;;;;;;4.33;3.00;;;;;26.90;36.64;101237.84;5074118;28;45418;-66
2022/08/27 09:51:50;;;;;;;;;4.00;4.00;;;;;26.89;36.51;101236.13;5073837;27;45425;-65
2022/08/27 09:54:39;;;;;;;;;9.00;6.33;;;;;26.97;37.09;101225.78;5062173;27;45312;-65
2022/08/27 09:57:06;;;;;;;;;6.00;3.00;;;;;27.01;37.73;101242.63;5073956;28;45381;-65
2022/08/27 09:59:36;;;;;;;;;4.00;4.00;;;;;27.08;37.56;101223.34;5059548;27;45421;-67
2022/08/27 10:02:14;;;;;;;;;4.33;4.33;;;;;27.19;36.79;101227.19;5073831;27;46246;-66
2022/08/27 10:04:44;;;;;;;;;5.00;4.00;;;;;27.30;36.69;101229.28;5059042;28;45686;-66
2022/08/27 10:07:30;;;;;;;;;3.75;3.75;;;;;27.06;36.62;101179.53;5062332;28;45457;-66
2022/08/27 10:10:21;;;;;;;;;4.75;4.75;;;;;27.36;36.39;101221.72;5063023;27;45436;-65
2022/08/27 10:13:27;;;;;;;;;5.50;5.50;;;;;27.35;36.43;101232.56;5057927;28;47626;-68
2022/08/27 10:16:04;;;;;;;;;7.25;6.00;;;;;27.25;36.53;101229.56;5054267;28;45410;-67
2022/08/27 10:18:43;;;;;;;;;4.50;4.50;;;;;27.21;36.69;101226.19;5043390;28;45587;-69
2022/08/27 10:21:27;;;;;;;;;4.00;4.00;;;;;27.39;36.46;101234.97;5049867;27;45733;-74
2022/08/27 10:24:23;;;;;;;;;5.00;4.00;;;;;27.32;36.63;101228.22;5064073;27;46014;-66
2022/08/27 10:26:56;;;;;;;;;5.25;4.25;;;;;27.49;36.19;101230.75;5076198;27;45476;-66
2022/08/27 10:29:40;;;;;;;;;4.25;4.00;;;;;27.63;35.47;101207.53;5066028;27;45700;-66
2022/08/27 10:32:15;;;;;;;;;4.25;4.25;;;;;27.85;35.58;101221.38;5065020;28;45502;-68
2022/08/27 10:35:24;;;;;;;;;4.00;3.00;;;;;27.94;35.26;101216.41;5070405;27;45422;-66
2022/08/27 10:38:22;;;;;;;;;4.50;4.00;;;;;28.13;35.18;101214.25;5037372;27;45872;-69
2022/08/27 10:40:57;;;;;;;;;4.00;4.00;;;;;28.04;33.96;101217.53;5062016;27;45598;-65
2022/08/27 10:43:45;;;;;;;;;5.25;5.00;;;;;27.79;34.39;101212.81;5073833;28;45549;-65
2022/08/27 10:46:35;;;;;;;;;3.50;1.75;;;;;27.86;34.43;101215.06;5073444;28;46073;-68
2022/08/27 10:49:01;;;;;;;;;4.25;3.75;;;;;27.99;34.67;101214.28;5066876;27;45305;-65
2022/08/27 10:51:57;;;;;;;;;3.25;3.25;;;;;28.19;34.28;101207.59;5077589;28;45469;-65
2022/08/27 10:54:37;;;;;;;;;2.00;2.00;;;;;28.32;34.12;101193.25;5066282;28;45516;-65
2022/08/27 10:57:31;;;;;;;;;3.00;2.00;;;;;28.61;33.74;101205.78;5070520;28;45607;-70
2022/08/27 11:00:12;;;;;;;;;7.00;4.75;;;;;28.61;33.52;101198.56;5068215;28;45774;-69
2022/08/27 11:03:06;;;;;;;;;4.25;4.25;;;;;28.69;33.17;101200.78;5068452;28;45532;-74
2022/08/27 11:05:41;;;;;;;;;4.50;4.25;;;;;28.77;32.77;101193.03;5058455;28;45594;-67
2022/08/27 11:08:22;;;;;;;;;4.75;4.75;;;;;28.92;32.66;101188.41;5056563;28;46398;-66
2022/08/27 11:10:55;;;;;;;;;5.00;5.00;;;;;28.81;32.15;101172.09;5060973;28;45382;-67
2022/08/27 11:13:37;;;;;;;;;5.00;5.00;;;;;28.90;32.10;101182.25;5069617;28;45920;-69
2022/08/27 11:16:13;;;;;;;;;5.75;4.00;;;;;28.98;32.14;101171.81;5054918;28;45473;-67
2022/08/27 11:18:47;;;;;;;;;3.00;3.00;;;;;29.00;31.81;101164.50;5078326;27;45354;-69
2022/08/27 11:21:33;;;;;;;;;6.00;4.00;;;;;29.12;31.82;101170.91;5060821;28;45738;-67
2022/08/27 11:24:28;;;;;;;;;3.50;3.25;;;;;29.23;32.15;101156.66;5063481;28;45446;-74
2022/08/27 11:26:59;;;;;;;;;6.50;5.00;;;;;29.24;31.66;101143.09;5024700;28;45757;-68
2022/08/27 11:29:35;;;;;;;;;3.50;3.00;;;;;29.48;31.28;101172.88;5072811;28;45670;-69
2022/08/27 11:32:27;;;;;;;;;4.50;4.50;;;;;29.63;30.31;101170.91;5079611;28;45487;-65
2022/08/27 11:34:58;;;;;;;;;3.00;3.00;;;;;29.67;30.37;101172.44;5041886;28;45343;-65
2022/08/27 11:37:41;;;;;;;;;2.00;2.00;;;;;29.79;30.14;101170.69;5067365;27;45536;-68
2022/08/27 11:40:31;;;;;;;;;4.50;4.50;;;;;29.91;30.43;101168.94;5073557;28;46126;-65
2022/08/27 11:43:11;;;;;;;;;5.00;5.00;;;;;29.96;29.40;101167.63;5042357;28;45459;-65
2022/08/27 11:45:50;;;;;;;;;5.00;5.00;;;;;29.79;29.37;101166.16;5060356;28;45608;-69
2022/08/27 11:48:40;;;;;;;;;4.50;3.00;;;;;29.88;29.55;101167.34;5037805;28;46130;-66